Terminal Aerodrome Forecast
Issued by NWS

Home | Current Version | Previous Version | Text Only | Print | Product List | Glossary On
Versions: 1 2 3 4 5 6 7 8 9 10 11 12 13 14 15 16 17 18 19 20 21 22 23 24 25 26 27 28 29 30 31
430
FTUS41 KPHI 220218 AAA
TAFMIV
TAF AMD
KMIV 220218Z 2202/2224 22004KT P6SM BKN080
     FM220400 34008KT P6SM -SHRA OVC045
     FM220700 04008KT P6SM -SHRA OVC035
     FM221600 05010KT 4SM -RA BR OVC015
     FM222200 05012KT 4SM -RA BR OVC008=

USA.gov is the U.S. government's official web portal to all federal, state and local government web resources and services.